Time;durP1;ratioP1;P1;durP2;ratioP2;P2;SDS_P1;SDS_P2;PMS_P1;PMS_P2;Temp;Humidity;BMP_temperature;BMP_pressure;BME280_temperature;BME280_humidity;BME280_pressure;Samples;Min_cycle;Max_cycle;Signal;HPM_P1;HPM_P2
2023/11/04 00:01:28;;;;;;;7.72;3.50;;;;;;;9.29;83.54;98771.38;5089004;28;20510;-75
2023/11/04 00:03:57;;;;;;;9.77;4.00;;;;;;;9.29;83.78;98773.16;5082129;28;20048;-74
2023/11/04 00:06:24;;;;;;;10.15;4.20;;;;;;;9.28;83.54;98766.22;5079456;28;20051;-74
2023/11/04 00:08:50;;;;;;;8.68;3.97;;;;;;;9.28;83.72;98763.63;5083894;28;20508;-74
2023/11/04 00:11:18;;;;;;;8.18;3.60;;;;;;;9.27;83.78;98761.94;5087383;28;20051;-75
2023/11/04 00:13:44;;;;;;;9.05;3.35;;;;;;;9.24;83.39;98750.72;5078274;28;20132;-74
2023/11/04 00:16:12;;;;;;;11.32;3.40;;;;;;;9.25;83.86;98751.59;5077474;28;20056;-73
2023/11/04 00:18:39;;;;;;;8.07;3.15;;;;;;;9.24;83.58;98752.50;5084140;28;20044;-74
2023/11/04 00:21:08;;;;;;;7.72;2.78;;;;;;;9.22;83.42;98752.59;5078612;28;20488;-74
2023/11/04 00:23:35;;;;;;;3.05;2.75;;;;;;;9.22;83.79;98749.09;5073112;28;20049;-74
2023/11/04 00:26:01;;;;;;;6.50;2.83;;;;;;;9.21;83.53;98739.63;5078093;28;20056;-75
2023/11/04 00:28:28;;;;;;;3.63;2.53;;;;;;;9.16;83.67;98742.44;5080141;28;20063;-75
2023/11/04 00:30:55;;;;;;;6.90;2.92;;;;;;;9.19;83.92;98742.31;5082092;28;20579;-78
2023/11/04 00:33:22;;;;;;;5.20;3.00;;;;;;;9.16;83.65;98732.03;5083548;28;20048;-75
2023/11/04 00:35:49;;;;;;;6.63;3.40;;;;;;;9.18;83.55;98727.56;5080969;28;20044;-74
2023/11/04 00:38:17;;;;;;;5.93;3.50;;;;;;;9.20;83.71;98724.91;5081821;28;20059;-73
2023/11/04 00:40:44;;;;;;;5.15;2.70;;;;;;;9.18;83.66;98716.31;5078397;28;20044;-74
2023/11/04 00:43:12;;;;;;;6.93;3.17;;;;;;;9.15;83.98;98709.47;5083036;28;20048;-74
2023/11/04 00:45:39;;;;;;;5.75;2.85;;;;;;;9.20;83.60;98711.88;5082765;28;20105;-74
2023/11/04 00:48:06;;;;;;;10.80;4.00;;;;;;;9.20;84.15;98710.13;5082832;28;20052;-73
2023/11/04 00:50:33;;;;;;;8.95;3.28;;;;;;;9.21;84.07;98703.16;5082736;28;20043;-75
2023/11/04 00:53:00;;;;;;;9.57;4.40;;;;;;;9.22;84.00;98715.25;5077601;28;20048;-73
2023/11/04 00:55:28;;;;;;;10.75;3.80;;;;;;;9.22;83.76;98712.63;5078856;28;20055;-74
2023/11/04 00:57:55;;;;;;;8.50;3.83;;;;;;;9.21;84.07;98714.41;5077641;28;20052;-74
2023/11/04 01:00:26;;;;;;;7.65;3.55;;;;;;;9.24;83.94;98703.84;5074273;28;20072;-75
2023/11/04 01:02:54;;;;;;;6.22;3.25;;;;;;;9.25;83.92;98699.50;5077379;28;20138;-75
2023/11/04 01:05:22;;;;;;;14.75;4.50;;;;;;;9.24;84.10;98706.44;5085896;28;20051;-74
2023/11/04 01:07:49;;;;;;;8.55;4.05;;;;;;;9.27;83.75;98697.66;5082645;28;20071;-74
2023/11/04 01:10:15;;;;;;;9.70;4.35;;;;;;;9.28;83.33;98690.66;5078825;28;20056;-74
2023/11/04 01:12:44;;;;;;;13.02;4.00;;;;;;;9.29;84.09;98687.16;5073974;28;20053;-74
2023/11/04 01:15:11;;;;;;;5.80;3.17;;;;;;;9.25;83.94;98673.44;5075695;28;20570;-73
2023/11/04 01:17:38;;;;;;;7.57;3.05;;;;;;;9.31;83.90;98677.53;5082240;28;20043;-74
2023/11/04 01:20:07;;;;;;;8.40;2.45;;;;;;;9.30;83.79;98668.00;5078228;28;20056;-74
2023/11/04 01:22:34;;;;;;;9.32;2.15;;;;;;;9.30;83.43;98665.41;5073615;28;20097;-74
2023/11/04 01:25:01;;;;;;;2.35;1.90;;;;;;;9.30;83.81;98668.84;5077389;28;20055;-73
2023/11/04 01:27:27;;;;;;;1.52;1.17;;;;;;;9.31;83.59;98667.09;5080219;28;20056;-74
2023/11/04 01:29:56;;;;;;;4.05;1.15;;;;;;;9.31;83.67;98661.91;5083948;28;20476;-73
2023/11/04 01:32:22;;;;;;;1.98;0.93;;;;;;;9.31;83.67;98646.25;5084650;28;20044;-74
2023/11/04 01:34:49;;;;;;;3.92;1.00;;;;;;;9.29;83.23;98646.31;5086042;28;20434;-73
2023/11/04 01:37:17;;;;;;;2.53;1.17;;;;;;;9.29;83.52;98641.13;5079505;28;20049;-74
2023/11/04 01:39:44;;;;;;;2.30;1.20;;;;;;;9.28;83.30;98636.84;5078495;28;20481;-74
2023/11/04 01:42:11;;;;;;;1.95;1.02;;;;;;;9.27;83.14;98636.88;5082023;28;20468;-73
2023/11/04 01:44:38;;;;;;;2.08;1.25;;;;;;;9.26;83.36;98638.66;5078259;28;20075;-72
2023/11/04 01:47:06;;;;;;;1.58;1.25;;;;;;;9.27;83.13;98626.47;5076114;28;20444;-72
2023/11/04 01:49:33;;;;;;;1.25;1.05;;;;;;;9.27;83.18;98622.09;5080906;28;20041;-72
2023/11/04 01:52:01;;;;;;;1.70;1.35;;;;;;;9.28;83.12;98612.50;5073033;28;20036;-72
2023/11/04 01:54:29;;;;;;;2.08;1.00;;;;;;;9.27;82.84;98618.66;5077721;28;20058;-72
2023/11/04 01:56:56;;;;;;;1.10;1.00;;;;;;;9.28;82.92;98630.75;5079430;28;20044;-72
2023/11/04 01:59:24;;;;;;;2.65;0.98;;;;;;;9.28;83.24;98656.81;5074817;28;20047;-71
2023/11/04 02:01:51;;;;;;;2.30;1.27;;;;;;;9.28;83.05;98647.25;5082766;28;20105;-73
2023/11/04 02:04:19;;;;;;;4.90;1.23;;;;;;;9.27;83.26;98631.69;5084494;28;20397;-69
2023/11/04 02:06:46;;;;;;;2.17;1.00;;;;;;;9.27;83.24;98605.63;5080767;28;20047;-69
2023/11/04 02:09:15;;;;;;;2.33;1.45;;;;;;;9.24;83.39;98588.38;5075545;28;20040;-69
2023/11/04 02:11:42;;;;;;;3.33;1.67;;;;;;;9.24;83.23;98597.03;5078530;28;20044;-69
2023/11/04 02:14:11;;;;;;;4.25;1.50;;;;;;;9.24;83.20;98609.22;5085976;28;20104;-68
2023/11/04 02:16:38;;;;;;;3.10;1.63;;;;;;;9.23;83.27;98597.97;5080881;28;20052;-68
2023/11/04 02:19:06;;;;;;;4.72;1.70;;;;;;;9.23;83.01;98595.34;5077063;28;20052;-68
2023/11/04 02:21:34;;;;;;;2.58;1.48;;;;;;;9.23;83.35;98582.34;5072649;28;20084;-69
2023/11/04 02:24:01;;;;;;;1.92;1.73;;;;;;;9.22;83.24;98585.88;5081161;28;20043;-69
2023/11/04 02:26:28;;;;;;;2.40;1.23;;;;;;;9.21;83.77;98565.91;5080941;28;20665;-69
2023/11/04 02:28:55;;;;;;;2.92;1.52;;;;;;;9.22;83.54;98559.81;5076623;28;20044;-69
2023/11/04 02:31:22;;;;;;;2.03;1.20;;;;;;;9.22;83.47;98559.81;5073565;28;20501;-69
2023/11/04 02:33:49;;;;;;;3.50;1.25;;;;;;;9.21;83.38;98563.31;5082155;28;20047;-68
2023/11/04 02:36:15;;;;;;;2.80;1.67;;;;;;;9.21;83.68;98558.09;5077182;28;20146;-70
2023/11/04 02:38:44;;;;;;;1.23;1.13;;;;;;;9.22;83.46;98565.03;5077021;28;20054;-70
2023/11/04 02:41:11;;;;;;;1.92;1.42;;;;;;;9.23;83.83;98555.44;5076188;28;20064;-69
2023/11/04 02:43:38;;;;;;;1.77;1.35;;;;;;;9.22;83.77;98557.22;5084682;28;20109;-69
2023/11/04 02:46:05;;;;;;;4.18;1.17;;;;;;;9.22;83.92;98546.78;5080173;28;20045;-69
2023/11/04 02:48:32;;;;;;;1.27;1.13;;;;;;;9.21;83.82;98537.25;5081732;28;20066;-69
2023/11/04 02:50:59;;;;;;;5.80;2.15;;;;;;;9.21;83.93;98539.03;5083128;28;20037;-69
2023/11/04 02:53:26;;;;;;;1.70;1.60;;;;;;;9.21;84.01;98532.06;5079143;28;20055;-74
2023/11/04 02:55:54;;;;;;;3.58;1.92;;;;;;;9.21;84.05;98532.06;5074236;28;20044;-75
2023/11/04 02:58:21;;;;;;;2.08;1.60;;;;;;;9.21;83.84;98529.44;5078871;28;20055;-74
2023/11/04 03:00:48;;;;;;;1.35;1.17;;;;;;;9.22;84.00;98530.28;5080431;28;20374;-74
2023/11/04 03:03:15;;;;;;;1.63;1.52;;;;;;;9.21;84.16;98511.22;5089963;28;20052;-74
2023/11/04 03:05:42;;;;;;;2.85;1.55;;;;;;;9.20;83.85;98506.94;5080409;28;20048;-74
2023/11/04 03:08:09;;;;;;;4.05;1.67;;;;;;;9.21;84.07;98502.56;5080646;28;20048;-74
2023/11/04 03:10:36;;;;;;;1.77;1.60;;;;;;;9.21;83.85;98511.22;5077943;28;20090;-74
2023/11/04 03:13:04;;;;;;;2.13;1.42;;;;;;;9.22;83.90;98496.44;5077332;28;20160;-73
2023/11/04 03:15:31;;;;;;;2.40;2.20;;;;;;;9.23;84.26;98491.16;5080021;28;20134;-74
2023/11/04 03:17:58;;;;;;;5.60;1.95;;;;;;;9.24;84.04;98498.03;5084462;28;20047;-74
2023/11/04 03:20:25;;;;;;;1.75;1.65;;;;;;;9.24;84.08;98489.38;5088241;28;20067;-74
2023/11/04 03:22:52;;;;;;;1.55;1.30;;;;;;;9.26;83.97;98494.53;5079876;28;20456;-74
2023/11/04 03:25:20;;;;;;;1.67;1.17;;;;;;;9.23;83.91;98483.34;5081232;28;20052;-74
2023/11/04 03:27:47;;;;;;;1.65;1.33;;;;;;;9.23;84.02;98475.53;5085049;28;20113;-74
2023/11/04 03:30:15;;;;;;;2.35;1.45;;;;;;;9.24;84.02;98469.38;5081308;28;20044;-75
2023/11/04 03:32:42;;;;;;;2.97;1.33;;;;;;;9.24;84.54;98469.38;5076869;28;20123;-74
2023/11/04 03:35:10;;;;;;;1.90;1.45;;;;;;;9.26;84.08;98465.88;5085745;28;20071;-75
2023/11/04 03:37:37;;;;;;;2.00;1.80;;;;;;;9.27;84.21;98467.56;5085061;28;20052;-74
2023/11/04 03:40:04;;;;;;;2.17;2.00;;;;;;;9.27;84.42;98467.56;5082530;28;20639;-74
2023/11/04 03:42:31;;;;;;;1.80;1.65;;;;;;;9.28;84.21;98458.81;5089039;28;20075;-74
2023/11/04 03:44:58;;;;;;;4.15;1.80;;;;;;;9.28;84.23;98449.25;5084647;28;20052;-74
2023/11/04 03:47:26;;;;;;;4.30;2.03;;;;;;;9.29;84.49;98445.72;5081182;28;20539;-75
2023/11/04 03:49:53;;;;;;;4.53;1.90;;;;;;;9.30;84.60;98443.94;5086473;28;20048;-74
2023/11/04 03:52:20;;;;;;;2.13;1.92;;;;;;;9.31;84.64;98438.69;5084404;28;20404;-74
2023/11/04 03:54:47;;;;;;;2.40;1.90;;;;;;;9.32;84.66;98429.09;5087724;28;20046;-75
2023/11/04 03:57:14;;;;;;;6.20;2.03;;;;;;;9.33;84.64;98425.56;5083464;28;20051;-75
2023/11/04 03:59:41;;;;;;;3.67;2.20;;;;;;;9.33;84.70;98423.78;5087771;28;20052;-74
2023/11/04 04:02:08;;;;;;;6.25;2.65;;;;;;;9.34;84.63;98412.47;5075552;28;20051;-71
2023/11/04 04:04:36;;;;;;;2.50;2.30;;;;;;;9.34;84.64;98407.25;5079227;28;20371;-73
2023/11/04 04:07:03;;;;;;;2.08;1.80;;;;;;;9.33;84.29;98389.09;5083425;28;20657;-74
2023/11/04 04:09:30;;;;;;;2.30;1.63;;;;;;;9.36;84.69;98383.72;5085605;28;20416;-75
2023/11/04 04:11:58;;;;;;;1.80;1.48;;;;;;;9.35;84.53;98379.44;5077267;28;20044;-74
2023/11/04 04:14:25;;;;;;;2.35;2.10;;;;;;;9.37;84.58;98385.41;5080384;28;20094;-74
2023/11/04 04:16:52;;;;;;;5.53;1.98;;;;;;;9.38;84.61;98377.50;5081750;28;20133;-74
2023/11/04 04:19:18;;;;;;;2.10;1.90;;;;;;;9.39;84.46;98374.00;5079691;28;20049;-74
2023/11/04 04:21:47;;;;;;;1.65;1.40;;;;;;;9.40;84.29;98367.84;5080881;28;20481;-74
2023/11/04 04:24:14;;;;;;;5.28;1.13;;;;;;;9.41;84.70;98371.28;5081677;28;20049;-75
2023/11/04 04:26:41;;;;;;;3.38;1.25;;;;;;;9.42;84.39;98372.97;5080848;28;20105;-73
2023/11/04 04:29:08;;;;;;;3.38;1.55;;;;;;;9.42;84.63;98378.19;5086845;28;20390;-74
2023/11/04 04:31:34;;;;;;;2.97;1.88;;;;;;;9.42;84.66;98375.56;5085166;28;20044;-73
2023/11/04 04:34:01;;;;;;;2.65;1.35;;;;;;;9.43;84.69;98372.06;5085270;28;20048;-72
2023/11/04 04:36:28;;;;;;;1.70;1.40;;;;;;;9.43;84.59;98366.84;5084314;28;20044;-74
2023/11/04 04:38:56;;;;;;;2.42;1.75;;;;;;;9.41;84.70;98355.66;5082218;28;20408;-72
2023/11/04 04:41:25;;;;;;;2.15;1.85;;;;;;;9.43;84.69;98359.03;5076217;28;20056;-73
2023/11/04 04:43:53;;;;;;;3.17;2.13;;;;;;;9.44;85.05;98347.69;5082126;28;20052;-73
2023/11/04 04:46:19;;;;;;;2.97;1.92;;;;;;;9.44;84.66;98348.50;5078818;28;20560;-73
2023/11/04 04:48:46;;;;;;;3.88;2.75;;;;;;;9.45;84.93;98352.00;5078187;28;20054;-73
2023/11/04 04:51:16;;;;;;;4.03;2.17;;;;;;;9.46;85.23;98351.06;5079609;28;20136;-73
2023/11/04 04:53:43;;;;;;;2.10;1.55;;;;;;;9.47;85.22;98350.13;5074321;28;20076;-73
2023/11/04 04:56:11;;;;;;;3.72;1.98;;;;;;;9.48;85.30;98351.81;5080658;28;20050;-73
2023/11/04 04:58:39;;;;;;;4.68;1.65;;;;;;;9.48;85.36;98346.63;5084791;28;20044;-73
2023/11/04 05:01:06;;;;;;;4.43;2.28;;;;;;;9.50;85.04;98344.75;5080557;28;20669;-73
2023/11/04 05:03:33;;;;;;;5.78;2.38;;;;;;;9.50;85.17;98341.31;5077178;28;20044;-73
2023/11/04 05:06:00;;;;;;;3.00;2.30;;;;;;;9.51;85.38;98341.25;5079775;28;20052;-73
2023/11/04 05:08:27;;;;;;;4.63;1.88;;;;;;;9.43;85.07;98319.94;5077033;28;20460;-72
2023/11/04 05:10:54;;;;;;;4.00;2.08;;;;;;;9.52;85.34;98331.66;5076561;28;20561;-73
2023/11/04 05:13:22;;;;;;;5.88;1.52;;;;;;;9.53;85.25;98328.09;5080358;28;20054;-78
2023/11/04 05:15:50;;;;;;;4.50;1.40;;;;;;;9.53;85.11;98328.94;5085305;28;20413;-77
2023/11/04 05:18:17;;;;;;;3.08;2.00;;;;;;;9.53;85.46;98328.94;5086896;28;20044;-78
2023/11/04 05:20:44;;;;;;;5.50;1.95;;;;;;;9.55;85.19;98323.66;5079240;28;20054;-78
2023/11/04 05:23:11;;;;;;;4.25;1.50;;;;;;;9.54;85.25;98325.44;5084654;28;20051;-78
2023/11/04 05:25:38;;;;;;;2.42;1.30;;;;;;;9.55;85.45;98310.63;5080852;28;20449;-78
2023/11/04 05:28:05;;;;;;;3.25;1.50;;;;;;;9.55;85.14;98310.63;5082632;28;20048;-79
2023/11/04 05:30:36;;;;;;;4.90;1.30;;;;;;;9.56;85.29;98318.38;5084952;28;20511;-78
2023/11/04 05:33:02;;;;;;;3.90;1.08;;;;;;;9.56;85.23;98302.75;5078982;28;20519;-73
2023/11/04 05:35:29;;;;;;;5.38;1.17;;;;;;;9.57;85.31;98301.81;5078825;28;20040;-73
2023/11/04 05:37:56;;;;;;;4.80;1.00;;;;;;;9.57;85.31;98304.41;5075125;28;20054;-72
2023/11/04 05:40:23;;;;;;;4.28;0.80;;;;;;;9.58;85.12;98292.22;5073819;28;20058;-73
2023/11/04 05:42:50;;;;;;;5.53;1.65;;;;;;;9.59;85.19;98296.50;5077290;28;20058;-73
2023/11/04 05:45:17;;;;;;;5.00;1.10;;;;;;;9.55;85.36;98292.38;5074651;28;20131;-73
2023/11/04 05:47:46;;;;;;;4.63;1.98;;;;;;;9.59;85.38;98302.56;5076888;28;20424;-73
2023/11/04 05:50:14;;;;;;;1.55;1.10;;;;;;;9.59;85.30;98301.72;5082138;28;20652;-73
2023/11/04 05:52:43;;;;;;;3.75;1.00;;;;;;;9.57;85.08;98294.00;5086986;28;20054;-73
2023/11/04 05:55:11;;;;;;;1.60;1.10;;;;;;;9.61;85.18;98294.66;5077633;28;20041;-74
2023/11/04 05:57:38;;;;;;;2.28;1.00;;;;;;;9.61;85.28;98294.66;5079354;28;20123;-72
2023/11/04 06:00:07;;;;;;;3.95;0.90;;;;;;;9.61;85.21;98290.28;5082209;28;20641;-73
2023/11/04 06:02:33;;;;;;;1.30;1.13;;;;;;;9.62;84.87;98286.78;5077822;28;20067;-73
2023/11/04 06:05:02;;;;;;;4.20;1.10;;;;;;;9.62;84.91;98286.78;5079669;28;20408;-74
2023/11/04 06:07:29;;;;;;;2.38;0.70;;;;;;;9.63;84.92;98291.06;5076226;28;20548;-72
2023/11/04 06:09:56;;;;;;;3.65;1.02;;;;;;;9.63;85.41;98287.59;5075682;28;20048;-75
2023/11/04 06:12:23;;;;;;;1.83;1.00;;;;;;;9.64;85.18;98290.13;5079975;28;20048;-72
2023/11/04 06:14:50;;;;;;;3.80;1.38;;;;;;;9.63;85.15;98285.00;5082294;28;20055;-73
2023/11/04 06:17:17;;;;;;;1.20;1.08;;;;;;;9.63;85.03;98280.63;5079340;28;20078;-73
2023/11/04 06:19:44;;;;;;;3.05;0.90;;;;;;;9.65;85.01;98286.59;5084802;28;20411;-74
2023/11/04 06:22:12;;;;;;;2.50;0.85;;;;;;;9.65;85.23;98280.56;5078016;28;20434;-73
2023/11/04 06:24:39;;;;;;;4.00;1.05;;;;;;;9.66;84.96;98282.22;5081782;28;20066;-71
2023/11/04 06:27:06;;;;;;;1.02;0.82;;;;;;;9.66;84.58;98285.66;5082343;28;20074;-72
2023/11/04 06:29:33;;;;;;;3.45;1.13;;;;;;;9.66;84.78;98271.78;5076390;28;20110;-73
2023/11/04 06:32:00;;;;;;;5.93;0.90;;;;;;;9.65;84.75;98270.13;5073017;28;20054;-73
2023/11/04 06:34:27;;;;;;;1.65;0.90;;;;;;;9.66;84.66;98267.41;5078060;28;20048;-73
2023/11/04 06:36:54;;;;;;;0.90;0.80;;;;;;;9.67;85.04;98258.66;5083715;28;20070;-71
2023/11/04 06:39:22;;;;;;;5.05;0.85;;;;;;;9.66;84.89;98259.59;5081263;28;20048;-71
2023/11/04 06:41:49;;;;;;;2.90;0.65;;;;;;;9.62;84.95;98263.31;5081167;28;20489;-72
2023/11/04 06:44:17;;;;;;;2.63;1.02;;;;;;;9.66;84.76;98261.38;5079379;28;20055;-78
2023/11/04 06:46:48;;;;;;;2.08;0.70;;;;;;;9.68;84.79;98270.78;5082967;28;20129;-78
2023/11/04 06:49:15;;;;;;;1.52;0.80;;;;;;;9.65;84.87;98268.34;5074523;28;20060;-78
2023/11/04 06:51:42;;;;;;;0.80;0.70;;;;;;;9.68;85.01;98265.59;5086183;28;20059;-78
2023/11/04 06:54:09;;;;;;;1.20;0.77;;;;;;;9.68;84.57;98260.38;5083194;28;20041;-78
2023/11/04 06:56:38;;;;;;;1.10;0.85;;;;;;;9.67;84.94;98257.81;5085468;28;20050;-78
2023/11/04 06:59:06;;;;;;;2.17;0.70;;;;;;;9.69;84.71;98262.03;5086292;28;20052;-78
2023/11/04 07:01:33;;;;;;;2.08;0.98;;;;;;;9.69;84.54;98256.81;5077875;28;20040;-79
2023/11/04 07:04:00;;;;;;;0.70;0.57;;;;;;;9.68;84.43;98242.13;5078184;28;20397;-78
2023/11/04 07:06:27;;;;;;;1.98;0.75;;;;;;;9.69;84.52;98241.19;5080812;28;20036;-77
2023/11/04 07:08:54;;;;;;;2.75;0.77;;;;;;;9.69;84.63;98235.97;5079458;28;20052;-78
2023/11/04 07:11:21;;;;;;;1.55;0.60;;;;;;;9.68;84.34;98229.09;5078171;28;20090;-78
2023/11/04 07:13:49;;;;;;;1.67;0.50;;;;;;;9.67;84.62;98218.72;5085252;28;20048;-78
2023/11/04 07:16:16;;;;;;;2.28;0.60;;;;;;;9.68;84.32;98223.88;5080349;28;20044;-78
2023/11/04 07:18:44;;;;;;;0.50;0.40;;;;;;;9.71;84.71;98216.81;5079504;28;20051;-77
2023/11/04 07:21:11;;;;;;;0.55;0.40;;;;;;;9.70;84.54;98210.75;5081648;28;20672;-78
2023/11/04 07:23:39;;;;;;;0.82;0.40;;;;;;;9.72;84.46;98213.28;5085480;28;20545;-78
2023/11/04 07:26:07;;;;;;;3.33;0.60;;;;;;;9.71;84.44;98207.22;5081469;28;20052;-78
2023/11/04 07:28:35;;;;;;;0.85;0.50;;;;;;;9.72;84.53;98202.84;5082051;28;20090;-78
2023/11/04 07:31:05;;;;;;;0.95;0.60;;;;;;;9.71;84.30;98194.19;5080857;28;20056;-78
2023/11/04 07:33:32;;;;;;;1.00;0.60;;;;;;;9.71;84.52;98196.78;5078072;28;20056;-74
2023/11/04 07:35:59;;;;;;;1.08;0.98;;;;;;;9.72;84.38;98197.63;5077218;28;20044;-74
2023/11/04 07:38:26;;;;;;;0.50;0.40;;;;;;;9.72;84.31;98197.63;5083532;28;20044;-74
2023/11/04 07:40:52;;;;;;;0.93;0.50;;;;;;;9.59;84.58;98167.06;5074811;28;20051;-74
2023/11/04 07:43:19;;;;;;;0.63;0.40;;;;;;;9.71;84.46;98186.38;5072637;28;20045;-74
2023/11/04 07:45:46;;;;;;;1.17;0.40;;;;;;;9.73;84.48;98196.69;5078811;28;20061;-74
2023/11/04 07:48:15;;;;;;;1.17;0.50;;;;;;;9.71;84.33;98182.94;5082113;28;20717;-75
2023/11/04 07:50:42;;;;;;;2.88;0.45;;;;;;;9.71;84.38;98186.38;5077380;28;20051;-74
2023/11/04 07:53:09;;;;;;;2.60;0.40;;;;;;;9.71;84.44;98175.94;5086964;28;20052;-74
2023/11/04 07:55:37;;;;;;;0.60;0.40;;;;;;;9.68;84.54;98168.28;5080989;28;20494;-73
2023/11/04 07:58:04;;;;;;;0.98;0.40;;;;;;;9.72;84.29;98176.78;5076519;28;20464;-74
2023/11/04 08:00:31;;;;;;;1.83;0.70;;;;;;;9.72;84.50;98171.56;5078903;28;20047;-74
2023/11/04 08:02:58;;;;;;;0.70;0.47;;;;;;;9.65;84.42;98158.88;5081418;28;20396;-74
2023/11/04 08:05:26;;;;;;;3.15;0.57;;;;;;;9.71;84.56;98159.47;5080989;28;20052;-73
2023/11/04 08:07:53;;;;;;;0.85;0.60;;;;;;;9.71;84.47;98164.69;5084210;28;20048;-74
2023/11/04 08:10:20;;;;;;;3.75;0.80;;;;;;;9.72;84.43;98171.56;5076261;28;20055;-74
2023/11/04 08:12:47;;;;;;;0.55;0.40;;;;;;;9.72;84.59;98163.75;5076346;28;20040;-73
2023/11/04 08:15:14;;;;;;;0.50;0.45;;;;;;;9.71;84.52;98159.47;5083397;28;20043;-74
2023/11/04 08:17:41;;;;;;;1.80;0.50;;;;;;;9.72;84.23;98156.75;5084611;28;20041;-74
2023/11/04 08:20:10;;;;;;;2.78;0.52;;;;;;;9.70;84.69;98142.97;5081782;28;20040;-74
2023/11/04 08:22:39;;;;;;;1.70;0.43;;;;;;;9.72;84.51;98155.94;5082440;28;20040;-73
2023/11/04 08:25:08;;;;;;;0.55;0.32;;;;;;;9.72;84.49;98154.16;5080421;28;20085;-74
2023/11/04 08:27:35;;;;;;;1.10;0.38;;;;;;;9.72;84.31;98159.38;5085222;28;20054;-74
2023/11/04 08:30:03;;;;;;;0.47;0.40;;;;;;;9.72;84.56;98146.34;5086643;28;20086;-73
2023/11/04 08:32:30;;;;;;;2.35;0.43;;;;;;;9.68;84.63;98142.22;5080053;28;20562;-73
2023/11/04 08:34:58;;;;;;;1.90;0.40;;;;;;;9.72;84.56;98140.28;5088458;28;20467;-74
2023/11/04 08:37:25;;;;;;;0.82;0.30;;;;;;;9.73;84.56;98136.75;5078975;28;20504;-74
2023/11/04 08:39:54;;;;;;;5.75;0.85;;;;;;;9.73;84.69;98131.53;5078141;28;20094;-74
2023/11/04 08:42:21;;;;;;;0.50;0.30;;;;;;;9.72;85.12;98133.28;5075448;28;20490;-70
2023/11/04 08:44:48;;;;;;;3.42;0.50;;;;;;;9.72;84.85;98135.06;5081598;28;20077;-70
2023/11/04 08:47:16;;;;;;;2.78;0.70;;;;;;;9.74;84.58;98138.44;5076514;28;20052;-70
2023/11/04 08:49:43;;;;;;;3.33;2.13;;;;;;;9.74;84.97;98135.84;5072308;28;20410;-70
2023/11/04 08:52:10;;;;;;;5.43;1.48;;;;;;;9.75;84.90;98133.13;5076983;28;20040;-70
2023/11/04 08:54:37;;;;;;;5.68;2.42;;;;;;;9.76;84.99;98133.94;5081491;28;20048;-70
2023/11/04 08:57:06;;;;;;;4.50;2.65;;;;;;;9.76;85.02;98133.94;5075354;28;20098;-69
2023/11/04 08:59:33;;;;;;;9.95;3.17;;;;;;;9.76;84.73;98131.34;5084058;28;20455;-70
2023/11/04 09:02:00;;;;;;;9.40;3.97;;;;;;;9.76;85.13;98131.34;5082823;28;20079;-70
2023/11/04 09:04:27;;;;;;;9.05;4.20;;;;;;;9.76;85.06;98121.78;5078704;28;20132;-69
2023/11/04 09:06:55;;;;;;;6.25;3.90;;;;;;;9.74;84.84;98115.81;5081605;28;20070;-69
2023/11/04 09:09:22;;;;;;;11.63;4.72;;;;;;;9.75;85.04;98127.06;5087124;28;20052;-70
2023/11/04 09:11:49;;;;;;;8.48;5.20;;;;;;;9.76;85.26;98128.75;5084994;28;20041;-69
2023/11/04 09:14:17;;;;;;;9.98;4.07;;;;;;;9.76;85.01;98121.78;5077108;28;20508;-70
2023/11/04 09:16:44;;;;;;;8.98;4.00;;;;;;;9.75;85.20;98124.47;5077340;28;20135;-69
2023/11/04 09:19:11;;;;;;;11.65;5.35;;;;;;;9.72;85.19;98117.66;5079482;28;20048;-70
2023/11/04 09:21:39;;;;;;;15.88;5.45;;;;;;;9.76;85.07;98123.53;5079736;28;20054;-69
2023/11/04 09:24:07;;;;;;;13.10;4.72;;;;;;;9.77;84.99;98118.25;5078808;28;20135;-70
2023/11/04 09:26:34;;;;;;;13.85;6.60;;;;;;;9.75;85.26;98109.66;5073117;28;20056;-69
2023/11/04 09:29:02;;;;;;;13.38;6.13;;;;;;;9.76;85.20;98107.88;5084788;28;20048;-70
2023/11/04 09:31:30;;;;;;;9.13;4.78;;;;;;;9.76;85.38;98102.66;5082366;28;20071;-69
2023/11/04 09:33:57;;;;;;;12.35;5.10;;;;;;;9.76;85.38;98103.53;5077842;28;20072;-69
2023/11/04 09:36:24;;;;;;;8.10;5.15;;;;;;;9.76;85.09;98108.75;5079931;28;20036;-69
2023/11/04 09:38:51;;;;;;;9.85;5.15;;;;;;;9.77;85.13;98101.75;5073342;28;20432;-69
2023/11/04 09:41:17;;;;;;;9.27;5.45;;;;;;;9.77;85.44;98101.75;5082984;28;20044;-69
2023/11/04 09:43:44;;;;;;;12.95;5.40;;;;;;;9.77;85.15;98101.75;5081733;28;20043;-70
2023/11/04 09:46:11;;;;;;;9.13;4.97;;;;;;;9.74;85.49;98086.31;5080787;28;20417;-69
2023/11/04 09:48:40;;;;;;;14.88;5.95;;;;;;;9.76;85.12;98094.84;5071090;28;20055;-69
2023/11/04 09:51:12;;;;;;;8.30;5.25;;;;;;;9.76;85.28;98090.50;5074320;28;20135;-70
2023/11/04 09:53:46;;;;;;;13.77;5.65;;;;;;;9.77;85.07;98093.94;5077274;28;20071;-78
2023/11/04 09:56:12;;;;;;;14.07;4.85;;;;;;;9.74;85.12;98084.53;5079141;28;20051;-77
2023/11/04 09:58:39;;;;;;;19.38;5.50;;;;;;;9.77;85.00;98089.56;5086098;28;20417;-78
2023/11/04 10:01:07;;;;;;;8.98;3.90;;;;;;;9.76;85.07;98090.50;5080349;28;20048;-77
2023/11/04 10:03:33;;;;;;;10.77;5.22;;;;;;;9.78;85.25;98087.78;5079541;28;20044;-78
2023/11/04 10:06:02;;;;;;;10.32;5.03;;;;;;;9.80;84.91;98096.38;5078525;28;20383;-77
2023/11/04 10:08:29;;;;;;;9.52;5.57;;;;;;;9.79;84.98;98085.09;5086995;28;20039;-77
2023/11/04 10:10:55;;;;;;;12.07;5.32;;;;;;;9.81;85.05;98087.59;5083542;28;20052;-77
2023/11/04 10:13:22;;;;;;;11.50;4.50;;;;;;;9.81;85.08;98085.84;5081856;28;20557;-78
2023/11/04 10:15:49;;;;;;;9.07;5.28;;;;;;;9.82;84.97;98079.72;5086036;28;20044;-78
2023/11/04 10:18:16;;;;;;;7.53;5.30;;;;;;;9.84;85.06;98077.00;5085005;28;20500;-77
2023/11/04 10:20:43;;;;;;;12.27;5.65;;;;;;;9.85;84.93;98070.88;5082039;28;20040;-78
2023/11/04 10:23:11;;;;;;;7.93;4.57;;;;;;;9.86;85.09;98069.94;5082458;28;20047;-78
2023/11/04 10:25:38;;;;;;;9.48;4.55;;;;;;;9.87;85.03;98067.22;5081287;28;20059;-76
2023/11/04 10:28:05;;;;;;;8.77;4.95;;;;;;;9.89;85.26;98069.75;5079697;28;20051;-77
2023/11/04 10:30:33;;;;;;;15.57;6.38;;;;;;;9.90;85.16;98072.28;5079629;28;20060;-77
2023/11/04 10:33:07;;;;;;;8.88;4.43;;;;;;;9.91;85.07;98062.69;5079804;28;20044;-77
2023/11/04 10:35:35;;;;;;;9.70;4.53;;;;;;;9.92;84.98;98059.13;5082856;28;20102;-76
2023/11/04 10:38:06;;;;;;;10.82;4.07;;;;;;;9.93;84.75;98065.19;5075952;28;20119;-77
2023/11/04 10:40:34;;;;;;;12.10;4.82;;;;;;;9.93;85.13;98071.22;5079810;28;20417;-78
2023/11/04 10:43:06;;;;;;;13.73;5.75;;;;;;;9.93;84.82;98071.22;5081155;28;20096;-77
2023/11/04 10:45:37;;;;;;;15.18;4.68;;;;;;;9.94;84.93;98072.94;5081675;28;20037;-77
2023/11/04 10:48:15;;;;;;;11.82;5.57;;;;;;;9.96;84.78;98070.22;5082519;28;20048;-78
2023/11/04 10:50:45;;;;;;;5.05;4.50;;;;;;;9.96;84.77;98065.88;5080015;28;20044;-77
2023/11/04 10:53:25;;;;;;;10.20;4.55;;;;;;;9.97;84.76;98075.34;5083828;28;20032;-78
2023/11/04 10:56:00;;;;;;;12.98;5.55;;;;;;;9.98;84.91;98061.38;5081653;28;20104;-78
2023/11/04 10:58:32;;;;;;;9.70;5.10;;;;;;;9.99;84.86;98065.69;5080710;28;20051;-78
2023/11/04 11:01:01;;;;;;;10.02;5.00;;;;;;;10.00;84.95;98059.53;5077696;28;20049;-78
2023/11/04 11:03:29;;;;;;;14.00;5.60;;;;;;;10.01;84.93;98060.34;5079983;28;20048;-70
2023/11/04 11:05:56;;;;;;;14.40;5.45;;;;;;;10.01;85.03;98055.97;5079775;28;20058;-70
2023/11/04 11:08:24;;;;;;;18.13;5.13;;;;;;;10.02;85.00;98056.84;5083101;28;20052;-70
2023/11/04 11:11:00;;;;;;;11.30;5.88;;;;;;;10.04;84.60;98053.19;5081327;28;20535;-70
2023/11/04 11:13:32;;;;;;;10.10;4.85;;;;;;;10.04;84.71;98052.34;5078971;28;20048;-71
2023/11/04 11:15:59;;;;;;;12.27;5.47;;;;;;;10.05;84.51;98049.66;5078419;28;20047;-70
2023/11/04 11:18:28;;;;;;;9.02;5.60;;;;;;;10.04;84.70;98047.97;5082981;28;20052;-70
2023/11/04 11:20:55;;;;;;;12.55;5.78;;;;;;;10.07;84.50;98057.38;5083485;28;20036;-70
2023/11/04 11:23:29;;;;;;;11.73;5.88;;;;;;;10.05;84.62;98044.44;5088743;28;20044;-72
2023/11/04 11:26:08;;;;;;;10.48;4.60;;;;;;;10.08;84.58;98049.47;5087108;28;20056;-72
2023/11/04 11:28:37;;;;;;;10.38;6.13;;;;;;;10.09;84.74;98055.53;5084928;28;20055;-72
2023/11/04 11:31:05;;;;;;;9.65;6.22;;;;;;;10.09;84.41;98053.75;5089006;28;20052;-72
2023/11/04 11:33:32;;;;;;;10.38;6.63;;;;;;;10.09;84.33;98053.75;5083173;28;20059;-72
2023/11/04 11:36:00;;;;;;;11.70;6.13;;;;;;;10.10;84.83;98047.63;5078596;28;20044;-71
2023/11/04 11:38:28;;;;;;;15.18;7.45;;;;;;;10.11;84.60;98045.84;5076518;28;20386;-74
2023/11/04 11:40:56;;;;;;;14.05;7.18;;;;;;;10.12;84.55;98045.75;5082748;28;20054;-73